createdAt,value
2018-05-31T00:02:15.113Z,9.57
2018-05-31T00:04:43.405Z,9.93
2018-05-31T00:07:11.728Z,9.88
2018-05-31T00:09:39.249Z,9.43
2018-05-31T00:12:07.537Z,9.88
2018-05-31T00:14:35.864Z,9.57
2018-05-31T00:17:03.381Z,9.32
2018-05-31T00:19:30.916Z,9.25
2018-05-31T00:21:58.465Z,9.98
2018-05-31T00:24:26.006Z,9.05
2018-05-31T00:26:53.762Z,9.45
2018-05-31T00:29:21.318Z,10.02
2018-05-31T00:31:48.942Z,9.85
2018-05-31T00:34:16.467Z,8.88
2018-05-31T00:36:44.007Z,9.43
2018-05-31T00:39:11.529Z,9.68
2018-05-31T00:41:39.048Z,9.57
2018-05-31T00:44:06.595Z,9.85
2018-05-31T00:46:34.124Z,9.60
2018-05-31T00:49:01.662Z,10.07
2018-05-31T00:51:29.219Z,10.02
2018-05-31T00:53:56.748Z,9.95
2018-05-31T00:56:25.033Z,10.93
2018-05-31T00:58:52.588Z,12.95
2018-05-31T01:01:20.883Z,11.77
2018-05-31T01:03:49.165Z,12.13
2018-05-31T01:06:16.721Z,11.52
2018-05-31T01:08:45.031Z,13.13
2018-05-31T01:11:12.573Z,11.35
2018-05-31T01:13:40.892Z,12.55
2018-05-31T01:16:08.413Z,11.07
2018-05-31T01:18:36.738Z,10.80
2018-05-31T01:21:04.250Z,11.15
2018-05-31T01:23:32.555Z,11.40
2018-05-31T01:26:00.092Z,11.40
2018-05-31T01:28:27.689Z,11.00
2018-05-31T01:30:55.210Z,10.90
2018-05-31T01:33:23.547Z,10.85
2018-05-31T01:35:51.209Z,10.82
2018-05-31T01:38:31.497Z,12.18
2018-05-31T01:40:59.128Z,12.13
2018-05-31T01:43:26.665Z,11.80
2018-05-31T01:45:54.196Z,12.48
2018-05-31T01:48:21.745Z,11.65
2018-05-31T01:50:49.273Z,11.75
2018-05-31T01:53:16.818Z,12.65
2018-05-31T01:55:45.134Z,12.18
2018-05-31T01:58:12.666Z,12.37
2018-05-31T02:00:40.974Z,13.77
2018-05-31T02:03:08.556Z,11.95
2018-05-31T02:05:36.123Z,12.70
2018-05-31T02:08:03.677Z,12.18
2018-05-31T02:10:31.228Z,12.25
2018-05-31T02:12:58.757Z,12.63
2018-05-31T02:15:27.069Z,13.38
2018-05-31T02:17:54.629Z,12.63
2018-05-31T02:20:22.161Z,13.70
2018-05-31T02:22:49.685Z,12.80
2018-05-31T02:25:17.252Z,14.05
2018-05-31T02:27:44.773Z,12.82
2018-05-31T02:30:13.176Z,12.98
2018-05-31T02:32:40.725Z,15.23
2018-05-31T02:35:09.026Z,12.85
2018-05-31T02:37:36.565Z,14.23
2018-05-31T02:40:04.877Z,13.55
2018-05-31T02:42:32.414Z,12.52
2018-05-31T02:45:00.723Z,13.13
2018-05-31T02:47:28.279Z,13.62
2018-05-31T02:49:55.800Z,13.23
2018-05-31T02:52:23.322Z,13.07
2018-05-31T02:54:50.880Z,12.98
2018-05-31T02:57:18.421Z,13.10
2018-05-31T02:59:46.717Z,12.90
2018-05-31T03:02:14.270Z,13.40
2018-05-31T03:04:41.800Z,12.75
2018-05-31T03:07:09.352Z,13.23
2018-05-31T03:09:36.910Z,13.38
2018-05-31T03:12:04.456Z,13.88
2018-05-31T03:14:32.037Z,15.18
2018-05-31T03:16:59.602Z,15.02
2018-05-31T03:19:27.145Z,14.00
2018-05-31T03:21:54.685Z,13.50
2018-05-31T03:24:22.260Z,13.60
2018-05-31T03:26:49.830Z,14.15
2018-05-31T03:29:17.368Z,14.35
2018-05-31T03:31:45.769Z,14.75
2018-05-31T03:34:13.310Z,14.18
2018-05-31T03:36:40.837Z,13.57
2018-05-31T03:39:08.410Z,13.57
2018-05-31T03:41:35.933Z,13.48
2018-05-31T03:44:03.467Z,12.82
2018-05-31T03:46:31.785Z,13.20
2018-05-31T03:48:59.300Z,13.57
2018-05-31T03:51:28.329Z,12.88
2018-05-31T03:53:56.662Z,14.57
2018-05-31T03:56:24.194Z,13.55
2018-05-31T03:58:52.492Z,14.52
2018-05-31T04:01:20.154Z,15.10
2018-05-31T04:03:48.541Z,13.95
2018-05-31T04:06:16.082Z,14.02
2018-05-31T04:08:43.675Z,14.38
2018-05-31T04:11:11.216Z,14.07
2018-05-31T04:13:38.753Z,13.62
2018-05-31T04:16:07.084Z,13.90
2018-05-31T04:18:34.695Z,13.50
2018-05-31T04:21:02.235Z,14.02
2018-05-31T04:23:29.807Z,14.52
2018-05-31T04:25:57.350Z,14.95
2018-05-31T04:28:24.876Z,16.45
2018-05-31T04:30:53.203Z,15.23
2018-05-31T04:33:20.909Z,13.90
2018-05-31T04:35:49.204Z,15.18
2018-05-31T04:38:17.517Z,15.20
2018-05-31T04:40:45.042Z,15.70
2018-05-31T04:43:13.338Z,14.77
2018-05-31T04:45:41.654Z,13.75
2018-05-31T04:48:09.184Z,14.23
2018-05-31T04:50:36.716Z,15.20
2018-05-31T04:53:04.272Z,14.63
2018-05-31T04:55:31.814Z,14.18
2018-05-31T04:57:59.346Z,15.60
2018-05-31T05:00:26.935Z,15.13
2018-05-31T05:02:54.515Z,15.50
2018-05-31T05:05:22.021Z,15.98
2018-05-31T05:07:50.360Z,15.85
2018-05-31T05:10:17.897Z,15.00
2018-05-31T05:12:45.453Z,16.37
2018-05-31T05:15:12.999Z,15.93
2018-05-31T05:17:41.293Z,15.90
2018-05-31T05:20:08.834Z,16.42
2018-05-31T05:22:37.172Z,14.52
2018-05-31T05:25:04.718Z,14.82
2018-05-31T05:27:32.278Z,16.05
2018-05-31T05:30:00.606Z,14.52
2018-05-31T05:32:28.147Z,14.10
2018-05-31T05:34:55.860Z,14.30
2018-05-31T05:37:24.176Z,14.70
2018-05-31T05:39:51.709Z,14.50
2018-05-31T05:42:20.016Z,15.18
2018-05-31T05:44:47.579Z,14.70
2018-05-31T05:47:15.107Z,15.13
2018-05-31T05:49:42.637Z,15.93
2018-05-31T05:52:10.291Z,16.27
2018-05-31T05:54:37.813Z,16.12
2018-05-31T05:57:06.127Z,15.10
2018-05-31T05:59:33.681Z,13.88
2018-05-31T06:02:01.210Z,15.02
2018-05-31T06:04:28.754Z,14.60
2018-05-31T06:06:56.298Z,14.65
2018-05-31T06:09:23.857Z,14.50
2018-05-31T06:11:51.427Z,14.40
2018-05-31T06:14:18.981Z,14.07
2018-05-31T06:16:46.521Z,14.30
2018-05-31T06:19:14.832Z,13.48
2018-05-31T06:21:42.389Z,13.15
2018-05-31T06:24:09.938Z,13.27
2018-05-31T06:26:38.225Z,13.32
2018-05-31T06:29:06.539Z,12.20
2018-05-31T06:31:34.073Z,13.70
2018-05-31T06:34:02.385Z,14.55
2018-05-31T06:36:30.023Z,13.88
2018-05-31T06:38:58.339Z,12.65
2018-05-31T06:41:25.893Z,12.25
2018-05-31T06:43:53.437Z,12.10
2018-05-31T06:46:21.712Z,11.73
2018-05-31T06:48:50.227Z,11.75
2018-05-31T06:51:17.787Z,11.85
2018-05-31T06:53:45.293Z,10.38
2018-05-31T06:56:12.810Z,10.63
2018-05-31T06:58:40.406Z,10.30
2018-05-31T07:01:08.659Z,9.98
2018-05-31T07:03:36.177Z,10.73
2018-05-31T07:06:03.726Z,10.77
2018-05-31T07:08:31.256Z,11.50
2018-05-31T07:10:59.542Z,9.40
2018-05-31T07:13:27.076Z,9.88
2018-05-31T07:15:55.355Z,10.30
2018-05-31T07:18:23.645Z,9.35
2018-05-31T07:20:51.934Z,9.10
2018-05-31T07:23:19.450Z,7.90
2018-05-31T07:25:46.974Z,10.80
2018-05-31T07:28:15.291Z,8.15
2018-05-31T07:30:42.812Z,7.75
2018-05-31T07:33:10.328Z,7.97
2018-05-31T07:35:37.921Z,9.05
2018-05-31T07:38:06.384Z,6.80
2018-05-31T07:40:34.006Z,8.00
2018-05-31T07:43:01.561Z,7.82
2018-05-31T07:45:29.119Z,7.43
2018-05-31T07:47:56.625Z,7.15
2018-05-31T07:50:24.164Z,8.48
2018-05-31T07:52:51.695Z,7.18
2018-05-31T07:55:20.003Z,8.27
2018-05-31T07:57:47.536Z,8.38
2018-05-31T08:00:15.804Z,8.80
2018-05-31T08:02:43.325Z,8.48
2018-05-31T08:05:10.860Z,8.50
2018-05-31T08:07:39.149Z,8.20
2018-05-31T08:10:06.679Z,7.32
2018-05-31T08:12:34.292Z,9.27
2018-05-31T08:15:01.803Z,7.78
2018-05-31T08:17:30.098Z,7.57
2018-05-31T08:19:57.642Z,6.43
2018-05-31T08:22:25.166Z,6.30
2018-05-31T08:24:52.689Z,6.68
2018-05-31T08:27:21.076Z,6.15
2018-05-31T08:29:49.383Z,7.15
2018-05-31T08:32:16.988Z,8.68
2018-05-31T08:34:44.518Z,7.32
2018-05-31T08:37:12.086Z,6.90
2018-05-31T08:39:39.656Z,7.18
2018-05-31T08:42:07.214Z,6.30
2018-05-31T08:44:34.735Z,6.05
2018-05-31T08:47:02.252Z,5.45
2018-05-31T08:49:29.791Z,5.35
2018-05-31T08:51:57.307Z,5.55
2018-05-31T08:54:24.826Z,6.10
2018-05-31T08:56:52.395Z,7.55
2018-05-31T08:59:19.894Z,8.00
2018-05-31T09:01:47.438Z,5.45
2018-05-31T09:04:14.974Z,6.07
2018-05-31T09:06:42.497Z,6.00
2018-05-31T09:09:10.017Z,6.90
2018-05-31T09:11:37.567Z,5.60
2018-05-31T09:14:05.085Z,5.62
2018-05-31T09:16:32.598Z,5.85
2018-05-31T09:19:00.133Z,6.43
2018-05-31T09:21:27.647Z,5.85
2018-05-31T09:23:55.163Z,7.68
2018-05-31T09:26:23.490Z,5.95
2018-05-31T09:28:51.006Z,6.22
2018-05-31T09:31:19.285Z,6.28
2018-05-31T09:33:46.845Z,7.18
2018-05-31T09:36:14.397Z,7.47
2018-05-31T09:38:41.947Z,7.07
2018-05-31T09:41:09.606Z,8.07
2018-05-31T09:43:37.171Z,5.70
2018-05-31T09:46:04.693Z,5.72
2018-05-31T09:48:33.007Z,5.10
2018-05-31T09:51:00.525Z,5.07
2018-05-31T09:53:28.815Z,6.82
2018-05-31T09:55:57.114Z,5.78
2018-05-31T09:58:24.637Z,5.53
2018-05-31T10:00:52.160Z,7.22
2018-05-31T10:03:19.692Z,5.50
2018-05-31T10:05:47.965Z,7.20
2018-05-31T10:08:16.237Z,6.35
2018-05-31T10:10:43.828Z,5.20
2018-05-31T10:13:11.331Z,6.15
2018-05-31T10:15:38.845Z,5.37
2018-05-31T10:18:07.190Z,8.27
2018-05-31T10:20:34.717Z,7.30
2018-05-31T10:23:02.233Z,6.07
2018-05-31T10:25:31.274Z,6.80
2018-05-31T10:27:58.790Z,5.78
2018-05-31T10:30:26.292Z,5.35
2018-05-31T10:32:53.825Z,5.90
2018-05-31T10:35:21.346Z,5.57
2018-05-31T10:37:48.865Z,5.55
2018-05-31T10:40:17.177Z,6.05
2018-05-31T10:42:44.758Z,7.68
2018-05-31T10:45:12.264Z,6.37
2018-05-31T10:47:41.312Z,5.05
2018-05-31T10:50:08.837Z,5.70
2018-05-31T10:52:37.158Z,4.75
2018-05-31T10:55:04.688Z,5.22
2018-05-31T10:57:33.023Z,6.70
2018-05-31T11:00:00.514Z,5.30
2018-05-31T11:02:28.052Z,6.65
2018-05-31T11:04:55.595Z,7.37
2018-05-31T11:07:23.112Z,6.05
2018-05-31T11:09:50.719Z,5.37
2018-05-31T11:12:18.253Z,6.93
2018-05-31T11:14:46.525Z,5.15
2018-05-31T11:17:14.065Z,5.53
2018-05-31T11:19:41.582Z,6.18
2018-05-31T11:22:09.114Z,8.55
2018-05-31T11:24:36.661Z,6.18
2018-05-31T11:27:04.174Z,4.30
2018-05-31T11:29:32.449Z,5.80
2018-05-31T11:32:00.744Z,4.85
2018-05-31T11:34:28.269Z,7.60
2018-05-31T11:36:55.780Z,5.07
2018-05-31T11:39:23.327Z,4.35
2018-05-31T11:41:50.846Z,6.05
2018-05-31T11:44:18.464Z,5.40
2018-05-31T11:46:45.989Z,7.25
2018-05-31T11:49:13.499Z,5.43
2018-05-31T11:51:41.018Z,5.70
2018-05-31T11:54:08.628Z,8.43
2018-05-31T11:56:36.140Z,6.95
2018-05-31T11:59:03.669Z,5.32
2018-05-31T12:01:31.222Z,5.10
2018-05-31T12:03:58.777Z,4.65
2018-05-31T12:06:26.367Z,5.55
2018-05-31T12:08:53.912Z,3.90
2018-05-31T12:11:21.429Z,4.05
2018-05-31T12:13:48.938Z,5.65
2018-05-31T12:16:16.503Z,5.30
2018-05-31T12:18:44.055Z,4.55
2018-05-31T12:21:12.330Z,4.10
2018-05-31T12:23:40.629Z,5.03
2018-05-31T12:26:08.142Z,4.12
2018-05-31T12:28:35.658Z,6.05
2018-05-31T12:31:03.188Z,4.30
2018-05-31T12:33:30.784Z,5.00
2018-05-31T12:35:58.304Z,5.97
2018-05-31T12:38:25.829Z,5.37
2018-05-31T12:40:53.338Z,4.20
2018-05-31T12:43:20.849Z,4.28
2018-05-31T12:45:48.413Z,5.45
2018-05-31T12:48:15.940Z,5.90
2018-05-31T12:50:44.217Z,4.60
2018-05-31T12:53:11.838Z,5.57
2018-05-31T12:55:39.361Z,4.70
2018-05-31T12:58:07.659Z,5.18
2018-05-31T13:00:35.227Z,7.30
2018-05-31T13:03:02.754Z,6.95
2018-05-31T13:05:30.400Z,5.85
2018-05-31T13:07:57.903Z,7.87
2018-05-31T13:10:26.186Z,5.70
2018-05-31T13:12:54.509Z,7.50
2018-05-31T13:15:22.026Z,5.50
2018-05-31T13:17:50.314Z,6.05
2018-05-31T13:20:18.617Z,6.57
2018-05-31T13:22:47.006Z,6.18
2018-05-31T13:25:14.545Z,7.93
2018-05-31T13:27:42.061Z,7.72
2018-05-31T13:30:09.599Z,7.62
2018-05-31T13:32:37.102Z,6.25
2018-05-31T13:35:06.272Z,7.87
2018-05-31T13:37:33.809Z,7.65
2018-05-31T13:40:02.090Z,10.02
2018-05-31T13:42:30.356Z,7.50
2018-05-31T13:44:58.682Z,7.28
2018-05-31T13:47:26.401Z,7.90
2018-05-31T13:49:54.682Z,7.85
2018-05-31T13:52:22.998Z,8.13
2018-05-31T13:54:50.545Z,9.30
2018-05-31T13:57:18.833Z,8.25
2018-05-31T13:59:46.371Z,7.93
2018-05-31T14:02:13.878Z,9.00
2018-05-31T14:04:41.385Z,7.70
2018-05-31T14:07:10.425Z,8.30
2018-05-31T14:09:37.998Z,7.65
2018-05-31T14:12:05.570Z,9.13
2018-05-31T14:14:33.130Z,7.68
2018-05-31T14:17:00.660Z,10.20
2018-05-31T14:19:28.933Z,7.43
2018-05-31T14:21:56.485Z,7.22
2018-05-31T14:24:24.070Z,6.87
2018-05-31T14:26:52.359Z,7.40
2018-05-31T14:29:20.667Z,7.10
2018-05-31T14:31:48.186Z,9.02
2018-05-31T14:34:16.472Z,10.25
2018-05-31T14:36:45.521Z,7.95
2018-05-31T14:39:13.055Z,8.95
2018-05-31T14:41:40.575Z,8.75
2018-05-31T14:44:08.126Z,7.28
2018-05-31T14:46:35.641Z,10.18
2018-05-31T14:49:04.057Z,6.95
2018-05-31T14:51:31.578Z,7.55
2018-05-31T14:53:59.102Z,8.32
2018-05-31T14:56:27.387Z,8.38
2018-05-31T14:58:54.918Z,8.57
2018-05-31T15:01:22.492Z,8.50
2018-05-31T15:03:50.018Z,8.80
2018-05-31T15:06:18.321Z,8.10
2018-05-31T15:08:45.863Z,8.40
2018-05-31T15:11:14.237Z,10.73
2018-05-31T15:13:42.572Z,8.32
2018-05-31T15:16:10.089Z,8.60
2018-05-31T15:18:37.606Z,8.98
2018-05-31T15:21:05.136Z,8.48
2018-05-31T15:23:33.410Z,6.45
2018-05-31T15:26:01.692Z,6.93
2018-05-31T15:28:29.988Z,9.60
2018-05-31T15:30:57.524Z,11.00
2018-05-31T15:33:25.800Z,8.45
2018-05-31T15:35:54.877Z,12.77
2018-05-31T15:38:23.153Z,7.28
2018-05-31T15:40:50.692Z,11.32
2018-05-31T15:43:18.237Z,10.60
2018-05-31T15:45:45.757Z,8.55
2018-05-31T15:48:14.064Z,10.00
2018-05-31T15:50:41.750Z,8.82
2018-05-31T15:53:10.026Z,8.30
2018-05-31T15:55:38.305Z,7.35
2018-05-31T15:58:05.835Z,10.23
2018-05-31T16:00:33.363Z,6.70
2018-05-31T16:03:00.872Z,8.38
2018-05-31T16:05:29.289Z,14.82
2018-05-31T16:07:56.825Z,7.80
2018-05-31T16:10:24.340Z,9.30
2018-05-31T16:12:51.895Z,11.95
2018-05-31T16:15:19.419Z,11.55
2018-05-31T16:17:46.941Z,13.18
2018-05-31T16:20:14.480Z,7.75
2018-05-31T16:22:42.006Z,8.77
2018-05-31T16:25:09.561Z,13.57
2018-05-31T16:27:37.111Z,10.55
2018-05-31T16:30:04.624Z,7.05
2018-05-31T16:32:32.918Z,8.35
2018-05-31T16:35:00.569Z,8.15
2018-05-31T16:37:28.133Z,11.15
2018-05-31T16:39:56.422Z,9.13
2018-05-31T16:42:24.729Z,10.82
2018-05-31T16:44:52.936Z,10.15
2018-05-31T16:47:20.449Z,7.95
2018-05-31T16:49:48.757Z,8.02
2018-05-31T16:52:16.404Z,9.50
2018-05-31T16:54:44.683Z,11.32
2018-05-31T16:57:12.246Z,12.80
2018-05-31T16:59:39.779Z,10.07
2018-05-31T17:02:07.288Z,11.93
2018-05-31T17:04:34.846Z,9.63
2018-05-31T17:07:03.093Z,9.02
2018-05-31T17:09:31.381Z,9.82
2018-05-31T17:11:59.733Z,9.98
2018-05-31T17:14:27.281Z,12.02
2018-05-31T17:16:54.803Z,8.32
2018-05-31T17:19:22.399Z,13.25
2018-05-31T17:21:50.181Z,8.77
2018-05-31T17:24:17.934Z,9.10
2018-05-31T17:26:45.486Z,11.23
2018-05-31T17:29:13.006Z,11.60
2018-05-31T17:31:40.516Z,9.98
2018-05-31T17:34:08.072Z,10.70
2018-05-31T17:36:36.350Z,14.23
2018-05-31T17:39:05.437Z,12.23
2018-05-31T17:41:33.743Z,12.52
2018-05-31T17:44:01.270Z,9.95
2018-05-31T17:46:28.807Z,11.20
2018-05-31T17:48:56.354Z,10.98
2018-05-31T17:51:23.874Z,9.38
2018-05-31T17:53:52.293Z,12.23
2018-05-31T17:56:19.851Z,11.98
2018-05-31T17:58:47.368Z,9.05
2018-05-31T18:01:14.894Z,7.20
2018-05-31T18:03:42.448Z,9.90
2018-05-31T18:06:09.962Z,7.80
2018-05-31T18:08:37.487Z,10.52
2018-05-31T18:11:05.027Z,9.00
2018-05-31T18:13:32.555Z,8.52
2018-05-31T18:16:01.653Z,8.90
2018-05-31T18:18:29.177Z,9.77
2018-05-31T18:20:56.705Z,9.65
2018-05-31T18:23:24.988Z,11.18
2018-05-31T18:25:52.519Z,12.35
2018-05-31T18:28:20.034Z,7.85
2018-05-31T18:30:47.707Z,9.60
2018-05-31T18:33:15.287Z,8.95
2018-05-31T18:35:42.803Z,9.85
2018-05-31T18:38:11.077Z,10.35
2018-05-31T18:40:38.613Z,9.65
2018-05-31T18:43:06.133Z,10.57
2018-05-31T18:45:33.654Z,10.05
2018-05-31T18:48:01.200Z,9.63
2018-05-31T18:50:28.785Z,10.65
2018-05-31T18:52:56.329Z,13.18
2018-05-31T18:55:24.314Z,11.65
2018-05-31T18:57:51.829Z,12.02
2018-05-31T19:00:19.365Z,10.88
2018-05-31T19:02:46.908Z,11.73
2018-05-31T19:05:14.441Z,14.02
2018-05-31T19:07:41.951Z,12.60
2018-05-31T19:10:09.561Z,7.95
2018-05-31T19:12:42.779Z,9.40
2018-05-31T19:15:10.337Z,10.32
2018-05-31T19:17:37.887Z,11.60
2018-05-31T19:20:05.424Z,10.82
2018-05-31T19:22:33.729Z,10.57
2018-05-31T19:25:06.833Z,11.02
2018-05-31T19:27:34.390Z,8.48
2018-05-31T19:30:20.702Z,10.55
2018-05-31T19:32:48.230Z,9.43
2018-05-31T19:35:32.530Z,8.13
2018-05-31T19:38:00.075Z,10.80
2018-05-31T19:40:27.593Z,10.23
2018-05-31T19:43:00.914Z,10.75
2018-05-31T19:45:28.529Z,9.02
2018-05-31T19:47:56.050Z,9.18
2018-05-31T19:50:23.604Z,7.07
2018-05-31T19:52:56.865Z,8.00
2018-05-31T19:55:24.459Z,10.10
2018-05-31T19:57:57.713Z,6.80
2018-05-31T20:00:31.162Z,8.13
2018-05-31T20:03:04.421Z,8.48
2018-05-31T20:05:31.966Z,8.73
2018-05-31T20:07:59.498Z,9.23
2018-05-31T20:10:27.012Z,8.23
2018-05-31T20:12:54.549Z,6.87
2018-05-31T20:15:22.064Z,7.25
2018-05-31T20:17:49.582Z,8.73
2018-05-31T20:20:17.124Z,10.63
2018-05-31T20:22:44.651Z,6.97
2018-05-31T20:25:12.156Z,9.45
2018-05-31T20:27:39.774Z,8.95
2018-05-31T20:30:08.066Z,10.52
2018-05-31T20:32:35.664Z,9.10
2018-05-31T20:35:03.157Z,7.22
2018-05-31T20:37:30.744Z,9.40
2018-05-31T20:39:59.025Z,8.85
2018-05-31T20:42:27.341Z,7.40
2018-05-31T20:44:54.852Z,8.55
2018-05-31T20:47:22.360Z,7.32
2018-05-31T20:49:49.901Z,8.95
2018-05-31T20:52:18.209Z,7.95
2018-05-31T20:54:45.817Z,7.28
2018-05-31T20:57:13.565Z,9.77
2018-05-31T20:59:41.096Z,7.50
2018-05-31T21:02:08.620Z,8.80
2018-05-31T21:04:36.151Z,7.45
2018-05-31T21:07:03.658Z,8.65
2018-05-31T21:09:31.198Z,9.05
2018-05-31T21:11:58.760Z,9.68
2018-05-31T21:14:26.279Z,8.93
2018-05-31T21:16:53.789Z,10.27
2018-05-31T21:19:21.398Z,7.82
2018-05-31T21:21:49.706Z,8.77
2018-05-31T21:24:17.242Z,8.90
2018-05-31T21:26:45.551Z,8.20
2018-05-31T21:29:13.179Z,10.73
2018-05-31T21:31:40.693Z,7.55
2018-05-31T21:34:08.232Z,8.77
2018-05-31T21:36:36.501Z,8.65
2018-05-31T21:39:05.569Z,6.87
2018-05-31T21:41:33.115Z,8.75
2018-05-31T21:44:00.618Z,8.82
2018-05-31T21:46:28.128Z,11.23
2018-05-31T21:48:55.662Z,7.75
2018-05-31T21:51:23.953Z,8.77
2018-05-31T21:53:51.461Z,7.90
2018-05-31T21:56:19.005Z,7.32
2018-05-31T21:58:47.439Z,8.55
2018-05-31T22:01:14.957Z,8.23
2018-05-31T22:03:42.482Z,7.87
2018-05-31T22:06:10.750Z,6.82
2018-05-31T22:08:38.258Z,7.50
2018-05-31T22:11:05.781Z,6.90
2018-05-31T22:13:34.044Z,7.90
2018-05-31T22:16:01.553Z,7.12
2018-05-31T22:18:29.097Z,6.97
2018-05-31T22:20:57.372Z,8.93
2018-05-31T22:23:25.655Z,6.07
2018-05-31T22:25:53.962Z,7.20
2018-05-31T22:28:21.485Z,6.55
2018-05-31T22:30:49.005Z,6.78
2018-05-31T22:33:16.536Z,7.22
2018-05-31T22:35:44.817Z,6.68
2018-05-31T22:38:14.269Z,7.18
2018-05-31T22:40:42.593Z,6.30
2018-05-31T22:43:10.115Z,6.62
2018-05-31T22:45:37.660Z,6.85
2018-05-31T22:48:05.201Z,8.73
2018-05-31T22:50:33.477Z,8.57
2018-05-31T22:53:01.754Z,7.35
2018-05-31T22:55:30.058Z,6.87
2018-05-31T22:57:57.594Z,7.37
2018-05-31T23:00:25.959Z,5.60
2018-05-31T23:02:53.513Z,6.12
2018-05-31T23:05:21.026Z,5.82
2018-05-31T23:07:48.546Z,7.45
2018-05-31T23:10:16.089Z,6.28
2018-05-31T23:12:43.598Z,8.15
2018-05-31T23:15:11.865Z,5.37
2018-05-31T23:17:39.396Z,6.47
2018-05-31T23:20:06.915Z,7.07
2018-05-31T23:22:35.181Z,5.37
2018-05-31T23:25:02.729Z,7.20
2018-05-31T23:27:30.243Z,5.87
2018-05-31T23:29:57.765Z,6.78
2018-05-31T23:32:25.293Z,7.45
2018-05-31T23:34:52.811Z,7.53
2018-05-31T23:37:21.092Z,5.80
2018-05-31T23:39:49.401Z,8.27
2018-05-31T23:42:17.704Z,7.72
2018-05-31T23:44:45.939Z,7.90
2018-05-31T23:47:14.244Z,7.68
2018-05-31T23:49:41.753Z,6.37
2018-05-31T23:52:09.268Z,11.07
2018-05-31T23:54:36.801Z,6.75
2018-05-31T23:57:05.076Z,5.95
2018-05-31T23:59:32.595Z,12.18
